sensor_id;sensor_type;location;lat;lon;timestamp;P1;durP1;ratioP1;P2;durP2;ratioP2
21022;SDS011;10669;51.076;3.714;2022-12-29T00:00:54;1.60;;;1.50;;
21022;SDS011;10669;51.076;3.714;2022-12-29T00:03:19;2.07;;;1.33;;
21022;SDS011;10669;51.076;3.714;2022-12-29T00:05:53;1.97;;;1.60;;
21022;SDS011;10669;51.076;3.714;2022-12-29T00:08:19;1.70;;;1.53;;
21022;SDS011;10669;51.076;3.714;2022-12-29T00:11:04;2.53;;;1.70;;
21022;SDS011;10669;51.076;3.714;2022-12-29T00:13:31;1.50;;;1.40;;
21022;SDS011;10669;51.076;3.714;2022-12-29T00:16:18;1.80;;;1.50;;
21022;SDS011;10669;51.076;3.714;2022-12-29T00:18:45;1.70;;;1.53;;
21022;SDS011;10669;51.076;3.714;2022-12-29T00:21:16;1.57;;;1.37;;
21022;SDS011;10669;51.076;3.714;2022-12-29T00:24:02;2.30;;;1.23;;
21022;SDS011;10669;51.076;3.714;2022-12-29T00:26:55;2.80;;;1.20;;
21022;SDS011;10669;51.076;3.714;2022-12-29T00:29:43;1.50;;;1.20;;
21022;SDS011;10669;51.076;3.714;2022-12-29T00:32:29;2.93;;;1.20;;
21022;SDS011;10669;51.076;3.714;2022-12-29T00:35:18;1.57;;;1.20;;
21022;SDS011;10669;51.076;3.714;2022-12-29T00:37:55;2.70;;;1.20;;
21022;SDS011;10669;51.076;3.714;2022-12-29T00:40:46;1.83;;;1.37;;
21022;SDS011;10669;51.076;3.714;2022-12-29T00:43:31;2.07;;;1.30;;
21022;SDS011;10669;51.076;3.714;2022-12-29T00:46:15;2.90;;;1.20;;
21022;SDS011;10669;51.076;3.714;2022-12-29T00:48:42;2.50;;;1.53;;
21022;SDS011;10669;51.076;3.714;2022-12-29T00:51:28;3.00;;;1.27;;
21022;SDS011;10669;51.076;3.714;2022-12-29T00:53:55;2.10;;;1.00;;
21022;SDS011;10669;51.076;3.714;2022-12-29T00:56:21;5.17;;;1.20;;
21022;SDS011;10669;51.076;3.714;2022-12-29T00:58:47;2.67;;;1.30;;
21022;SDS011;10669;51.076;3.714;2022-12-29T01:01:14;3.50;;;1.10;;
21022;SDS011;10669;51.076;3.714;2022-12-29T01:03:39;3.43;;;1.33;;
21022;SDS011;10669;51.076;3.714;2022-12-29T01:06:07;3.87;;;1.47;;
21022;SDS011;10669;51.076;3.714;2022-12-29T01:08:34;2.10;;;1.33;;
21022;SDS011;10669;51.076;3.714;2022-12-29T01:11:04;3.00;;;1.00;;
21022;SDS011;10669;51.076;3.714;2022-12-29T01:13:36;2.97;;;1.20;;
21022;SDS011;10669;51.076;3.714;2022-12-29T01:16:03;6.60;;;1.37;;
21022;SDS011;10669;51.076;3.714;2022-12-29T01:18:33;6.57;;;1.27;;
21022;SDS011;10669;51.076;3.714;2022-12-29T01:21:03;6.10;;;1.43;;
21022;SDS011;10669;51.076;3.714;2022-12-29T01:23:31;6.57;;;1.47;;
21022;SDS011;10669;51.076;3.714;2022-12-29T01:25:57;4.20;;;1.20;;
21022;SDS011;10669;51.076;3.714;2022-12-29T01:28:35;3.07;;;1.10;;
21022;SDS011;10669;51.076;3.714;2022-12-29T01:31:02;4.83;;;1.70;;
21022;SDS011;10669;51.076;3.714;2022-12-29T01:33:28;6.67;;;1.80;;
21022;SDS011;10669;51.076;3.714;2022-12-29T01:35:59;4.70;;;1.83;;
21022;SDS011;10669;51.076;3.714;2022-12-29T01:38:34;2.97;;;1.40;;
21022;SDS011;10669;51.076;3.714;2022-12-29T01:41:01;5.40;;;1.30;;
21022;SDS011;10669;51.076;3.714;2022-12-29T01:51:28;2.60;;;1.10;;
21022;SDS011;10669;51.076;3.714;2022-12-29T01:53:57;8.10;;;1.67;;
21022;SDS011;10669;51.076;3.714;2022-12-29T01:56:38;4.83;;;1.70;;
21022;SDS011;10669;51.076;3.714;2022-12-29T01:59:22;5.80;;;1.40;;
21022;SDS011;10669;51.076;3.714;2022-12-29T02:01:57;3.77;;;1.33;;
21022;SDS011;10669;51.076;3.714;2022-12-29T02:04:27;5.93;;;1.40;;
21022;SDS011;10669;51.076;3.714;2022-12-29T02:07:01;5.73;;;1.73;;
21022;SDS011;10669;51.076;3.714;2022-12-29T02:11:58;4.80;;;1.50;;
21022;SDS011;10669;51.076;3.714;2022-12-29T02:14:32;3.13;;;1.23;;
21022;SDS011;10669;51.076;3.714;2022-12-29T02:23:16;4.80;;;1.40;;
21022;SDS011;10669;51.076;3.714;2022-12-29T02:34:29;6.70;;;1.97;;
21022;SDS011;10669;51.076;3.714;2022-12-29T02:40:38;4.60;;;1.33;;
21022;SDS011;10669;51.076;3.714;2022-12-29T02:43:08;13.00;;;1.83;;
21022;SDS011;10669;51.076;3.714;2022-12-29T02:45:29;6.77;;;1.30;;
21022;SDS011;10669;51.076;3.714;2022-12-29T02:48:09;4.03;;;1.60;;
21022;SDS011;10669;51.076;3.714;2022-12-29T02:53:35;3.37;;;1.47;;
21022;SDS011;10669;51.076;3.714;2022-12-29T02:56:21;7.63;;;1.57;;
21022;SDS011;10669;51.076;3.714;2022-12-29T02:58:49;7.50;;;1.67;;
21022;SDS011;10669;51.076;3.714;2022-12-29T03:01:19;6.23;;;1.80;;
21022;SDS011;10669;51.076;3.714;2022-12-29T03:04:03;4.67;;;1.60;;
21022;SDS011;10669;51.076;3.714;2022-12-29T03:09:26;3.60;;;1.30;;
21022;SDS011;10669;51.076;3.714;2022-12-29T03:11:59;5.70;;;1.27;;
21022;SDS011;10669;51.076;3.714;2022-12-29T03:14:47;6.03;;;1.50;;
21022;SDS011;10669;51.076;3.714;2022-12-29T03:17:56;3.57;;;1.50;;
21022;SDS011;10669;51.076;3.714;2022-12-29T03:20:32;6.43;;;1.33;;
21022;SDS011;10669;51.076;3.714;2022-12-29T03:23:06;9.67;;;1.70;;
21022;SDS011;10669;51.076;3.714;2022-12-29T03:25:35;4.87;;;1.20;;
21022;SDS011;10669;51.076;3.714;2022-12-29T03:28:16;8.93;;;1.80;;
21022;SDS011;10669;51.076;3.714;2022-12-29T03:30:47;9.37;;;1.70;;
21022;SDS011;10669;51.076;3.714;2022-12-29T03:33:21;6.10;;;2.20;;
21022;SDS011;10669;51.076;3.714;2022-12-29T03:35:51;6.00;;;1.43;;
21022;SDS011;10669;51.076;3.714;2022-12-29T03:38:27;6.67;;;1.90;;
21022;SDS011;10669;51.076;3.714;2022-12-29T03:41:03;6.90;;;1.63;;
21022;SDS011;10669;51.076;3.714;2022-12-29T03:43:33;7.83;;;1.80;;
21022;SDS011;10669;51.076;3.714;2022-12-29T03:45:59;10.60;;;2.37;;
21022;SDS011;10669;51.076;3.714;2022-12-29T03:48:26;7.50;;;1.60;;
21022;SDS011;10669;51.076;3.714;2022-12-29T03:50:54;7.40;;;1.47;;
21022;SDS011;10669;51.076;3.714;2022-12-29T03:53:21;9.07;;;1.77;;
21022;SDS011;10669;51.076;3.714;2022-12-29T03:55:48;9.50;;;1.90;;
21022;SDS011;10669;51.076;3.714;2022-12-29T03:58:14;9.63;;;1.80;;
21022;SDS011;10669;51.076;3.714;2022-12-29T04:00:44;9.77;;;2.27;;
21022;SDS011;10669;51.076;3.714;2022-12-29T04:03:09;7.47;;;1.73;;
21022;SDS011;10669;51.076;3.714;2022-12-29T04:05:38;10.63;;;2.73;;
21022;SDS011;10669;51.076;3.714;2022-12-29T04:08:04;9.17;;;2.20;;
21022;SDS011;10669;51.076;3.714;2022-12-29T04:10:31;6.97;;;1.83;;
21022;SDS011;10669;51.076;3.714;2022-12-29T04:12:57;9.23;;;1.80;;
21022;SDS011;10669;51.076;3.714;2022-12-29T04:15:22;10.27;;;2.03;;
21022;SDS011;10669;51.076;3.714;2022-12-29T04:17:49;7.57;;;1.73;;
21022;SDS011;10669;51.076;3.714;2022-12-29T04:20:14;10.70;;;2.47;;
21022;SDS011;10669;51.076;3.714;2022-12-29T04:23:03;7.27;;;1.87;;
21022;SDS011;10669;51.076;3.714;2022-12-29T04:25:33;7.37;;;2.07;;
21022;SDS011;10669;51.076;3.714;2022-12-29T04:28:00;8.20;;;1.93;;
21022;SDS011;10669;51.076;3.714;2022-12-29T04:30:29;6.70;;;1.70;;
21022;SDS011;10669;51.076;3.714;2022-12-29T04:32:56;8.77;;;1.67;;
21022;SDS011;10669;51.076;3.714;2022-12-29T04:35:22;9.40;;;1.70;;
21022;SDS011;10669;51.076;3.714;2022-12-29T04:37:50;5.50;;;2.43;;
21022;SDS011;10669;51.076;3.714;2022-12-29T04:40:17;10.53;;;2.03;;
21022;SDS011;10669;51.076;3.714;2022-12-29T04:42:46;8.67;;;2.17;;
21022;SDS011;10669;51.076;3.714;2022-12-29T04:45:15;7.93;;;2.27;;
21022;SDS011;10669;51.076;3.714;2022-12-29T04:47:40;7.20;;;1.70;;
21022;SDS011;10669;51.076;3.714;2022-12-29T04:50:07;6.10;;;1.97;;
21022;SDS011;10669;51.076;3.714;2022-12-29T04:55:02;9.47;;;1.97;;
21022;SDS011;10669;51.076;3.714;2022-12-29T04:57:30;11.07;;;2.30;;
21022;SDS011;10669;51.076;3.714;2022-12-29T05:02:27;4.60;;;1.70;;
21022;SDS011;10669;51.076;3.714;2022-12-29T05:07:24;5.37;;;1.43;;
21022;SDS011;10669;51.076;3.714;2022-12-29T05:12:21;6.60;;;1.50;;
21022;SDS011;10669;51.076;3.714;2022-12-29T05:14:50;4.30;;;1.53;;
21022;SDS011;10669;51.076;3.714;2022-12-29T05:17:17;9.03;;;2.23;;
21022;SDS011;10669;51.076;3.714;2022-12-29T05:22:11;11.63;;;2.33;;
21022;SDS011;10669;51.076;3.714;2022-12-29T05:24:36;7.20;;;2.27;;
21022;SDS011;10669;51.076;3.714;2022-12-29T05:27:02;7.90;;;1.67;;
21022;SDS011;10669;51.076;3.714;2022-12-29T05:29:29;9.80;;;1.60;;
21022;SDS011;10669;51.076;3.714;2022-12-29T05:32:00;8.30;;;1.80;;
21022;SDS011;10669;51.076;3.714;2022-12-29T05:34:26;6.20;;;1.67;;
21022;SDS011;10669;51.076;3.714;2022-12-29T05:36:53;10.73;;;2.23;;
21022;SDS011;10669;51.076;3.714;2022-12-29T05:41:48;8.17;;;2.43;;
21022;SDS011;10669;51.076;3.714;2022-12-29T05:44:19;7.93;;;1.57;;
21022;SDS011;10669;51.076;3.714;2022-12-29T05:46:45;9.03;;;1.60;;
21022;SDS011;10669;51.076;3.714;2022-12-29T05:49:13;11.60;;;1.60;;
21022;SDS011;10669;51.076;3.714;2022-12-29T05:51:38;9.37;;;1.97;;
21022;SDS011;10669;51.076;3.714;2022-12-29T05:54:05;9.17;;;2.43;;
21022;SDS011;10669;51.076;3.714;2022-12-29T05:56:33;8.30;;;1.90;;
21022;SDS011;10669;51.076;3.714;2022-12-29T05:58:59;11.87;;;2.40;;
21022;SDS011;10669;51.076;3.714;2022-12-29T06:01:26;7.80;;;1.83;;
21022;SDS011;10669;51.076;3.714;2022-12-29T06:03:55;7.70;;;1.80;;
21022;SDS011;10669;51.076;3.714;2022-12-29T06:08:50;9.43;;;2.23;;
21022;SDS011;10669;51.076;3.714;2022-12-29T06:11:18;12.93;;;2.70;;
21022;SDS011;10669;51.076;3.714;2022-12-29T06:13:46;10.43;;;2.67;;
21022;SDS011;10669;51.076;3.714;2022-12-29T06:16:12;12.43;;;2.13;;
21022;SDS011;10669;51.076;3.714;2022-12-29T06:18:38;9.27;;;1.80;;
21022;SDS011;10669;51.076;3.714;2022-12-29T06:21:04;8.83;;;1.90;;
21022;SDS011;10669;51.076;3.714;2022-12-29T06:23:31;12.57;;;2.70;;
21022;SDS011;10669;51.076;3.714;2022-12-29T06:25:58;11.90;;;1.93;;
21022;SDS011;10669;51.076;3.714;2022-12-29T06:28:24;12.67;;;2.40;;
21022;SDS011;10669;51.076;3.714;2022-12-29T06:33:21;12.37;;;2.90;;
21022;SDS011;10669;51.076;3.714;2022-12-29T06:35:48;7.93;;;2.40;;
21022;SDS011;10669;51.076;3.714;2022-12-29T06:38:17;7.70;;;2.20;;
21022;SDS011;10669;51.076;3.714;2022-12-29T06:40:43;12.07;;;2.53;;
21022;SDS011;10669;51.076;3.714;2022-12-29T06:43:11;11.87;;;2.30;;
21022;SDS011;10669;51.076;3.714;2022-12-29T06:45:38;14.50;;;2.40;;
21022;SDS011;10669;51.076;3.714;2022-12-29T06:48:11;16.63;;;2.60;;
21022;SDS011;10669;51.076;3.714;2022-12-29T06:50:37;8.47;;;2.63;;
21022;SDS011;10669;51.076;3.714;2022-12-29T06:53:06;15.17;;;2.70;;
21022;SDS011;10669;51.076;3.714;2022-12-29T06:55:33;12.03;;;2.37;;
21022;SDS011;10669;51.076;3.714;2022-12-29T06:57:59;18.43;;;3.00;;
21022;SDS011;10669;51.076;3.714;2022-12-29T07:00:27;19.50;;;2.63;;
21022;SDS011;10669;51.076;3.714;2022-12-29T07:02:54;12.50;;;2.50;;
21022;SDS011;10669;51.076;3.714;2022-12-29T07:05:22;14.33;;;2.90;;
21022;SDS011;10669;51.076;3.714;2022-12-29T07:10:22;16.30;;;3.47;;
21022;SDS011;10669;51.076;3.714;2022-12-29T07:12:49;10.07;;;2.17;;
21022;SDS011;10669;51.076;3.714;2022-12-29T07:15:16;14.30;;;2.57;;
21022;SDS011;10669;51.076;3.714;2022-12-29T07:17:43;11.07;;;2.27;;
21022;SDS011;10669;51.076;3.714;2022-12-29T07:20:10;14.63;;;2.60;;
21022;SDS011;10669;51.076;3.714;2022-12-29T07:22:37;12.43;;;3.17;;
21022;SDS011;10669;51.076;3.714;2022-12-29T07:25:10;16.03;;;2.70;;
21022;SDS011;10669;51.076;3.714;2022-12-29T07:27:39;15.17;;;2.87;;
21022;SDS011;10669;51.076;3.714;2022-12-29T07:32:35;17.80;;;2.70;;
21022;SDS011;10669;51.076;3.714;2022-12-29T07:35:03;11.07;;;2.90;;
21022;SDS011;10669;51.076;3.714;2022-12-29T07:37:28;14.10;;;2.40;;
21022;SDS011;10669;51.076;3.714;2022-12-29T07:39:54;12.50;;;3.07;;
21022;SDS011;10669;51.076;3.714;2022-12-29T07:42:23;9.73;;;2.63;;
21022;SDS011;10669;51.076;3.714;2022-12-29T07:44:48;11.20;;;2.67;;
21022;SDS011;10669;51.076;3.714;2022-12-29T07:47:15;14.77;;;3.27;;
21022;SDS011;10669;51.076;3.714;2022-12-29T07:49:41;10.17;;;2.67;;
21022;SDS011;10669;51.076;3.714;2022-12-29T07:52:07;9.90;;;2.57;;
21022;SDS011;10669;51.076;3.714;2022-12-29T07:54:36;13.57;;;2.77;;
21022;SDS011;10669;51.076;3.714;2022-12-29T07:57:02;12.67;;;2.70;;
21022;SDS011;10669;51.076;3.714;2022-12-29T07:59:31;11.97;;;2.67;;
21022;SDS011;10669;51.076;3.714;2022-12-29T08:04:28;15.40;;;2.87;;
21022;SDS011;10669;51.076;3.714;2022-12-29T08:07:00;13.43;;;3.37;;
21022;SDS011;10669;51.076;3.714;2022-12-29T08:09:28;16.07;;;2.43;;
21022;SDS011;10669;51.076;3.714;2022-12-29T08:11:56;16.90;;;3.07;;
21022;SDS011;10669;51.076;3.714;2022-12-29T08:14:22;10.97;;;3.07;;
21022;SDS011;10669;51.076;3.714;2022-12-29T08:16:47;14.73;;;3.03;;
21022;SDS011;10669;51.076;3.714;2022-12-29T08:19:13;14.43;;;3.00;;
21022;SDS011;10669;51.076;3.714;2022-12-29T08:21:39;14.07;;;3.03;;
21022;SDS011;10669;51.076;3.714;2022-12-29T08:24:11;18.37;;;3.60;;
21022;SDS011;10669;51.076;3.714;2022-12-29T08:26:40;10.83;;;2.87;;
21022;SDS011;10669;51.076;3.714;2022-12-29T08:29:06;16.77;;;2.47;;
21022;SDS011;10669;51.076;3.714;2022-12-29T08:31:35;14.60;;;2.63;;
21022;SDS011;10669;51.076;3.714;2022-12-29T08:34:07;11.73;;;2.73;;
21022;SDS011;10669;51.076;3.714;2022-12-29T08:36:33;12.57;;;2.97;;
21022;SDS011;10669;51.076;3.714;2022-12-29T08:38:58;10.10;;;2.93;;
21022;SDS011;10669;51.076;3.714;2022-12-29T08:41:24;8.87;;;2.77;;
21022;SDS011;10669;51.076;3.714;2022-12-29T08:43:51;10.70;;;2.90;;
21022;SDS011;10669;51.076;3.714;2022-12-29T08:46:17;15.67;;;2.93;;
21022;SDS011;10669;51.076;3.714;2022-12-29T08:48:43;16.33;;;3.13;;
21022;SDS011;10669;51.076;3.714;2022-12-29T08:51:08;14.23;;;3.13;;
21022;SDS011;10669;51.076;3.714;2022-12-29T08:53:34;11.87;;;2.30;;
21022;SDS011;10669;51.076;3.714;2022-12-29T08:56:00;17.80;;;3.23;;
21022;SDS011;10669;51.076;3.714;2022-12-29T08:58:27;18.27;;;3.30;;
21022;SDS011;10669;51.076;3.714;2022-12-29T09:00:53;23.03;;;3.47;;
21022;SDS011;10669;51.076;3.714;2022-12-29T09:03:20;15.07;;;3.10;;
21022;SDS011;10669;51.076;3.714;2022-12-29T09:05:50;11.70;;;2.90;;
21022;SDS011;10669;51.076;3.714;2022-12-29T09:08:16;10.43;;;3.27;;
21022;SDS011;10669;51.076;3.714;2022-12-29T09:10:43;13.33;;;3.53;;
21022;SDS011;10669;51.076;3.714;2022-12-29T09:13:09;13.77;;;3.33;;
21022;SDS011;10669;51.076;3.714;2022-12-29T09:15:35;14.73;;;3.07;;
21022;SDS011;10669;51.076;3.714;2022-12-29T09:18:01;16.93;;;3.60;;
21022;SDS011;10669;51.076;3.714;2022-12-29T09:20:28;20.87;;;3.80;;
21022;SDS011;10669;51.076;3.714;2022-12-29T09:22:54;7.80;;;2.47;;
21022;SDS011;10669;51.076;3.714;2022-12-29T09:25:19;15.43;;;3.73;;
21022;SDS011;10669;51.076;3.714;2022-12-29T09:27:47;14.17;;;3.43;;
21022;SDS011;10669;51.076;3.714;2022-12-29T09:30:13;12.77;;;3.33;;
21022;SDS011;10669;51.076;3.714;2022-12-29T09:32:39;16.70;;;3.57;;
21022;SDS011;10669;51.076;3.714;2022-12-29T09:35:06;13.27;;;2.67;;
21022;SDS011;10669;51.076;3.714;2022-12-29T09:37:34;14.03;;;3.70;;
21022;SDS011;10669;51.076;3.714;2022-12-29T09:40:00;11.67;;;2.60;;
21022;SDS011;10669;51.076;3.714;2022-12-29T09:53:05;14.37;;;3.30;;
21022;SDS011;10669;51.076;3.714;2022-12-29T09:56:02;12.57;;;3.23;;
21022;SDS011;10669;51.076;3.714;2022-12-29T09:58:32;14.40;;;2.80;;
21022;SDS011;10669;51.076;3.714;2022-12-29T10:01:02;19.73;;;4.43;;
21022;SDS011;10669;51.076;3.714;2022-12-29T10:03:45;13.57;;;3.30;;
21022;SDS011;10669;51.076;3.714;2022-12-29T10:06:26;13.53;;;3.00;;
21022;SDS011;10669;51.076;3.714;2022-12-29T10:09:14;19.77;;;3.20;;
21022;SDS011;10669;51.076;3.714;2022-12-29T10:14:29;17.50;;;3.87;;
21022;SDS011;10669;51.076;3.714;2022-12-29T10:17:04;17.33;;;3.83;;
21022;SDS011;10669;51.076;3.714;2022-12-29T10:25:02;16.53;;;2.87;;
21022;SDS011;10669;51.076;3.714;2022-12-29T10:27:39;16.83;;;3.57;;
21022;SDS011;10669;51.076;3.714;2022-12-29T10:30:10;14.67;;;3.10;;
21022;SDS011;10669;51.076;3.714;2022-12-29T10:32:44;23.40;;;4.20;;
21022;SDS011;10669;51.076;3.714;2022-12-29T10:35:21;13.93;;;2.40;;
21022;SDS011;10669;51.076;3.714;2022-12-29T10:40:46;17.83;;;3.47;;
21022;SDS011;10669;51.076;3.714;2022-12-29T10:43:30;20.13;;;3.57;;
21022;SDS011;10669;51.076;3.714;2022-12-29T10:46:02;15.07;;;2.33;;
21022;SDS011;10669;51.076;3.714;2022-12-29T10:48:32;10.07;;;2.83;;
21022;SDS011;10669;51.076;3.714;2022-12-29T10:51:00;13.70;;;3.20;;
21022;SDS011;10669;51.076;3.714;2022-12-29T10:53:38;16.70;;;3.27;;
21022;SDS011;10669;51.076;3.714;2022-12-29T10:58:57;9.70;;;2.83;;
21022;SDS011;10669;51.076;3.714;2022-12-29T11:01:31;7.07;;;1.97;;
21022;SDS011;10669;51.076;3.714;2022-12-29T11:04:03;8.93;;;3.00;;
21022;SDS011;10669;51.076;3.714;2022-12-29T11:06:44;7.27;;;2.17;;
21022;SDS011;10669;51.076;3.714;2022-12-29T11:09:16;14.87;;;3.30;;
21022;SDS011;10669;51.076;3.714;2022-12-29T11:11:48;13.77;;;2.57;;
21022;SDS011;10669;51.076;3.714;2022-12-29T11:14:17;13.63;;;2.93;;
21022;SDS011;10669;51.076;3.714;2022-12-29T11:16:45;9.50;;;1.87;;
21022;SDS011;10669;51.076;3.714;2022-12-29T11:19:26;10.23;;;2.50;;
21022;SDS011;10669;51.076;3.714;2022-12-29T11:21:53;13.63;;;3.37;;
21022;SDS011;10669;51.076;3.714;2022-12-29T11:24:21;13.30;;;2.43;;
21022;SDS011;10669;51.076;3.714;2022-12-29T11:26:53;8.73;;;2.47;;
21022;SDS011;10669;51.076;3.714;2022-12-29T11:29:24;9.60;;;2.50;;
21022;SDS011;10669;51.076;3.714;2022-12-29T11:31:58;7.07;;;2.23;;
21022;SDS011;10669;51.076;3.714;2022-12-29T11:34:31;12.07;;;2.10;;
21022;SDS011;10669;51.076;3.714;2022-12-29T11:37:03;6.93;;;1.97;;
21022;SDS011;10669;51.076;3.714;2022-12-29T11:42:34;11.00;;;2.80;;
21022;SDS011;10669;51.076;3.714;2022-12-29T11:45:03;9.77;;;2.87;;
21022;SDS011;10669;51.076;3.714;2022-12-29T11:47:37;11.67;;;2.67;;
21022;SDS011;10669;51.076;3.714;2022-12-29T11:50:06;15.27;;;3.40;;
21022;SDS011;10669;51.076;3.714;2022-12-29T11:52:35;13.07;;;4.30;;
21022;SDS011;10669;51.076;3.714;2022-12-29T11:55:17;17.17;;;3.57;;
21022;SDS011;10669;51.076;3.714;2022-12-29T11:57:50;14.43;;;3.63;;
21022;SDS011;10669;51.076;3.714;2022-12-29T12:00:23;15.77;;;2.63;;
21022;SDS011;10669;51.076;3.714;2022-12-29T12:05:45;15.73;;;3.27;;
21022;SDS011;10669;51.076;3.714;2022-12-29T12:11:17;19.97;;;3.53;;
21022;SDS011;10669;51.076;3.714;2022-12-29T12:19:33;13.43;;;3.30;;
21022;SDS011;10669;51.076;3.714;2022-12-29T12:22:08;12.63;;;3.00;;
21022;SDS011;10669;51.076;3.714;2022-12-29T12:30:22;12.03;;;2.83;;
21022;SDS011;10669;51.076;3.714;2022-12-29T12:41:13;8.23;;;1.93;;
21022;SDS011;10669;51.076;3.714;2022-12-29T12:43:49;10.30;;;2.10;;
21022;SDS011;10669;51.076;3.714;2022-12-29T12:46:25;11.57;;;1.90;;
21022;SDS011;10669;51.076;3.714;2022-12-29T12:52:08;7.50;;;2.70;;
21022;SDS011;10669;51.076;3.714;2022-12-29T12:58:06;8.73;;;2.83;;
21022;SDS011;10669;51.076;3.714;2022-12-29T13:09:20;6.17;;;2.00;;
21022;SDS011;10669;51.076;3.714;2022-12-29T13:15:18;7.13;;;1.80;;
21022;SDS011;10669;51.076;3.714;2022-12-29T13:29:20;4.83;;;1.90;;
21022;SDS011;10669;51.076;3.714;2022-12-29T13:37:55;2.97;;;1.80;;
21022;SDS011;10669;51.076;3.714;2022-12-29T13:43:19;5.23;;;1.87;;
21022;SDS011;10669;51.076;3.714;2022-12-29T13:48:31;5.17;;;1.27;;
21022;SDS011;10669;51.076;3.714;2022-12-29T13:51:03;4.37;;;2.33;;
21022;SDS011;10669;51.076;3.714;2022-12-29T13:56:40;7.50;;;1.50;;
21022;SDS011;10669;51.076;3.714;2022-12-29T14:04:59;6.77;;;1.80;;
21022;SDS011;10669;51.076;3.714;2022-12-29T14:07:47;6.43;;;2.27;;
21022;SDS011;10669;51.076;3.714;2022-12-29T14:10:36;3.43;;;1.43;;
21022;SDS011;10669;51.076;3.714;2022-12-29T14:13:14;3.43;;;1.77;;
21022;SDS011;10669;51.076;3.714;2022-12-29T14:15:50;7.20;;;1.90;;
21022;SDS011;10669;51.076;3.714;2022-12-29T14:20:53;5.93;;;1.60;;
21022;SDS011;10669;51.076;3.714;2022-12-29T14:23:35;6.00;;;1.43;;
21022;SDS011;10669;51.076;3.714;2022-12-29T14:39:41;8.00;;;2.43;;
21022;SDS011;10669;51.076;3.714;2022-12-29T14:47:16;5.23;;;2.07;;
21022;SDS011;10669;51.076;3.714;2022-12-29T14:52:30;7.87;;;1.70;;
21022;SDS011;10669;51.076;3.714;2022-12-29T14:54:57;10.07;;;2.60;;
21022;SDS011;10669;51.076;3.714;2022-12-29T14:57:44;10.63;;;2.60;;
21022;SDS011;10669;51.076;3.714;2022-12-29T15:00:15;9.47;;;2.70;;
21022;SDS011;10669;51.076;3.714;2022-12-29T15:02:44;9.03;;;2.43;;
21022;SDS011;10669;51.076;3.714;2022-12-29T15:05:36;9.83;;;2.87;;
21022;SDS011;10669;51.076;3.714;2022-12-29T15:08:06;11.30;;;2.87;;
21022;SDS011;10669;51.076;3.714;2022-12-29T15:11:09;12.43;;;2.73;;
21022;SDS011;10669;51.076;3.714;2022-12-29T15:13:34;11.77;;;3.13;;
21022;SDS011;10669;51.076;3.714;2022-12-29T15:16:13;13.97;;;3.30;;
21022;SDS011;10669;51.076;3.714;2022-12-29T15:18:48;12.60;;;3.03;;
21022;SDS011;10669;51.076;3.714;2022-12-29T15:21:15;11.73;;;3.53;;
21022;SDS011;10669;51.076;3.714;2022-12-29T15:23:44;13.50;;;2.80;;
21022;SDS011;10669;51.076;3.714;2022-12-29T15:26:19;12.13;;;2.97;;
21022;SDS011;10669;51.076;3.714;2022-12-29T15:28:51;13.00;;;3.80;;
21022;SDS011;10669;51.076;3.714;2022-12-29T15:31:22;12.33;;;2.63;;
21022;SDS011;10669;51.076;3.714;2022-12-29T15:33:55;16.57;;;3.40;;
21022;SDS011;10669;51.076;3.714;2022-12-29T15:36:36;14.73;;;4.00;;
21022;SDS011;10669;51.076;3.714;2022-12-29T15:42:12;13.30;;;3.13;;
21022;SDS011;10669;51.076;3.714;2022-12-29T15:45:05;14.43;;;2.70;;
21022;SDS011;10669;51.076;3.714;2022-12-29T15:47:35;7.97;;;2.30;;
21022;SDS011;10669;51.076;3.714;2022-12-29T15:52:51;13.30;;;2.40;;
21022;SDS011;10669;51.076;3.714;2022-12-29T15:55:33;11.73;;;2.60;;
21022;SDS011;10669;51.076;3.714;2022-12-29T15:58:02;12.47;;;2.77;;
21022;SDS011;10669;51.076;3.714;2022-12-29T16:00:34;18.33;;;4.93;;
21022;SDS011;10669;51.076;3.714;2022-12-29T16:03:05;22.23;;;4.10;;
21022;SDS011;10669;51.076;3.714;2022-12-29T16:06:06;20.83;;;3.87;;
21022;SDS011;10669;51.076;3.714;2022-12-29T16:08:35;10.97;;;3.40;;
21022;SDS011;10669;51.076;3.714;2022-12-29T16:11:22;16.43;;;3.53;;
21022;SDS011;10669;51.076;3.714;2022-12-29T16:13:58;20.93;;;4.03;;
21022;SDS011;10669;51.076;3.714;2022-12-29T16:16:31;13.20;;;3.07;;
21022;SDS011;10669;51.076;3.714;2022-12-29T16:19:03;21.03;;;3.87;;
21022;SDS011;10669;51.076;3.714;2022-12-29T16:21:58;13.60;;;3.40;;
21022;SDS011;10669;51.076;3.714;2022-12-29T16:24:28;20.27;;;4.20;;
21022;SDS011;10669;51.076;3.714;2022-12-29T16:29:53;16.53;;;3.47;;
21022;SDS011;10669;51.076;3.714;2022-12-29T16:32:24;16.53;;;4.87;;
21022;SDS011;10669;51.076;3.714;2022-12-29T16:35:12;13.20;;;3.27;;
21022;SDS011;10669;51.076;3.714;2022-12-29T16:37:43;16.07;;;3.13;;
21022;SDS011;10669;51.076;3.714;2022-12-29T16:40:24;12.73;;;3.00;;
21022;SDS011;10669;51.076;3.714;2022-12-29T16:42:54;12.20;;;3.27;;
21022;SDS011;10669;51.076;3.714;2022-12-29T16:50:44;19.43;;;4.43;;
21022;SDS011;10669;51.076;3.714;2022-12-29T16:58:52;16.53;;;3.57;;
21022;SDS011;10669;51.076;3.714;2022-12-29T17:01:34;25.00;;;4.63;;
21022;SDS011;10669;51.076;3.714;2022-12-29T17:04:04;23.47;;;4.63;;
21022;SDS011;10669;51.076;3.714;2022-12-29T17:06:36;14.67;;;4.00;;
21022;SDS011;10669;51.076;3.714;2022-12-29T17:17:43;15.77;;;4.10;;
21022;SDS011;10669;51.076;3.714;2022-12-29T17:20:27;17.33;;;4.70;;
21022;SDS011;10669;51.076;3.714;2022-12-29T17:22:56;22.27;;;4.27;;
21022;SDS011;10669;51.076;3.714;2022-12-29T17:25:36;14.27;;;4.73;;
21022;SDS011;10669;51.076;3.714;2022-12-29T17:28:15;25.17;;;5.17;;
21022;SDS011;10669;51.076;3.714;2022-12-29T17:30:47;21.13;;;4.10;;
21022;SDS011;10669;51.076;3.714;2022-12-29T17:33:18;24.60;;;4.30;;
21022;SDS011;10669;51.076;3.714;2022-12-29T17:35:46;19.00;;;3.80;;
21022;SDS011;10669;51.076;3.714;2022-12-29T17:38:31;14.43;;;3.77;;
21022;SDS011;10669;51.076;3.714;2022-12-29T17:41:01;12.30;;;3.47;;
21022;SDS011;10669;51.076;3.714;2022-12-29T17:43:26;14.50;;;3.87;;
21022;SDS011;10669;51.076;3.714;2022-12-29T17:45:53;16.93;;;4.07;;
21022;SDS011;10669;51.076;3.714;2022-12-29T17:48:24;20.80;;;4.63;;
21022;SDS011;10669;51.076;3.714;2022-12-29T17:50:51;16.63;;;4.47;;
21022;SDS011;10669;51.076;3.714;2022-12-29T17:53:19;18.27;;;3.73;;
21022;SDS011;10669;51.076;3.714;2022-12-29T17:55:51;13.93;;;4.10;;
21022;SDS011;10669;51.076;3.714;2022-12-29T17:58:33;22.27;;;6.00;;
21022;SDS011;10669;51.076;3.714;2022-12-29T18:01:01;22.77;;;4.83;;
21022;SDS011;10669;51.076;3.714;2022-12-29T18:03:32;21.90;;;4.30;;
21022;SDS011;10669;51.076;3.714;2022-12-29T18:06:02;25.67;;;5.07;;
21022;SDS011;10669;51.076;3.714;2022-12-29T18:08:35;17.77;;;4.00;;
21022;SDS011;10669;51.076;3.714;2022-12-29T18:13:54;45.33;;;18.07;;
21022;SDS011;10669;51.076;3.714;2022-12-29T18:16:23;17.57;;;4.10;;
21022;SDS011;10669;51.076;3.714;2022-12-29T18:18:49;14.10;;;4.30;;
21022;SDS011;10669;51.076;3.714;2022-12-29T19:02:50;13.87;;;2.70;;
21022;SDS011;10669;51.076;3.714;2022-12-29T19:07:50;11.70;;;2.93;;
21022;SDS011;10669;51.076;3.714;2022-12-29T19:10:18;15.93;;;5.40;;
21022;SDS011;10669;51.076;3.714;2022-12-29T19:12:48;12.30;;;3.37;;
21022;SDS011;10669;51.076;3.714;2022-12-29T19:17:50;19.57;;;2.93;;
21022;SDS011;10669;51.076;3.714;2022-12-29T19:20:33;9.97;;;3.20;;
21022;SDS011;10669;51.076;3.714;2022-12-29T19:23:01;7.13;;;2.70;;
21022;SDS011;10669;51.076;3.714;2022-12-29T19:25:28;14.80;;;3.90;;
21022;SDS011;10669;51.076;3.714;2022-12-29T19:27:58;10.20;;;3.23;;
21022;SDS011;10669;51.076;3.714;2022-12-29T19:30:24;17.27;;;3.73;;
21022;SDS011;10669;51.076;3.714;2022-12-29T19:32:53;12.90;;;3.57;;